Fernando de Noronha, Brazil
Current Conditions -  °F | °C
As of 8:00 PM on Friday 31 Oct 2014 (Local Time) from SBFN Reporting Station
Scattered Clouds Scattered Clouds  
Wind Chill: 79°   Ceiling: Unl
Heat Index: 82°   Visibility: 6mi
Dew Point: 72°   Wind: 15mph
Humidity: 78%   Direction: 110°ESE
Pressure: 29.94"   Gusts: NA
Location:  3.86°S, 32.44°W
Report Text: SBFN 312200Z 11013KT 9999 SCT019 26/22 Q1014
Loading
Personal Weather Stations






























Interactive Weather Map
Tropical Storm Tracking
New forecast layout! Learn more

10-Day Weather Forecast

Advertisements
Track Severe Weather on mobile